Pagrindinis puslapis
METAR-TAF:

METAR-TAF

Oro uostai :

Utti, Suomija

platuma: 60-54N, ilguma: 026-56E, Aukštis: 100 m

Dabartinis oras

Ataskaita buvo paskelbta 18 minutes, ne 07:50 UTC
Vėjas 9 kt iš Pietryčių, svyruoja nuo Rytų ir Pietų
Temperatūra 11°C
Drėgmė 40%
Slėgis 1019 hPa
Matomumas 10 km arba daugiau
Mažai debesys ne aukštis 4700 ft

METAR: EFUT 200750Z 13009KT 100V170 9999 FEW047 11/M02 Q1019

Laikas: 11:08 (08:08 UTC)

Prognozė

Ataskaita buvo paskelbta 2 valandos ir 44 minutes, ne 05:24 UTC
Prognozė galioja nuo 20 metu 06 UTC su 20 metu 12 UTC
Vėjas 9 kt iš Rytų/Pietryčių
Matomumas 10 km arba daugiau
nėra debesų žemiau 1500 m ir nėra kamuolinių lietaus debesų

TAF: EFUT 200524Z 2006/2012 11009KT CAVOK

Orai ataskaitas ir orų prognozės (METAR, TAF).

turimą stotys yra geltonos ir raudonos taškus žemėlapyje.

Perkelti pele per norėdami pamatyti stoties vardą.

Tada spustelėkite, norėdami matyti oro stebėjimo ir prognozės.

Norėdami pakeisti žemėlapį: spustelėkite ant žalios mygtukų su juodo kryžiaus žemyn,; žalią mygtuką su brūkšneliu, jei norite nutolinti; arba žalių rodyklių gretimoms žemėlapius.


METAR-TAF: